Time;durP1;ratioP1;P1;durP2;ratioP2;P2;SDS_P1;SDS_P2;PMS_P1;PMS_P2;Temp;Humidity;BMP_temperature;BMP_pressure;BME280_temperature;BME280_humidity;BME280_pressure;Samples;Min_cycle;Max_cycle;Signal;HPM_P1;HPM_P2
2024/02/14 00:00:03;;;;;;;2.42;0.82;;;;;;;9.60;57.23;97517.97;4953977;28;20043;-83
2024/02/14 00:02:28;;;;;;;3.78;1.20;;;;;;;9.55;57.81;97518.66;4952524;28;20035;-84
2024/02/14 00:04:54;;;;;;;2.95;1.20;;;;;;;9.57;57.01;97508.81;4942206;28;20341;-83
2024/02/14 00:07:20;;;;;;;3.78;1.30;;;;;;;9.56;57.70;97517.63;4929092;28;20322;-86
2024/02/14 00:09:46;;;;;;;3.88;1.00;;;;;;;9.59;57.74;97515.59;4923812;28;20073;-85
2024/02/14 00:12:12;;;;;;;2.67;1.70;;;;;;;9.55;57.54;97508.25;4957359;28;20504;-79
2024/02/14 00:14:38;;;;;;;2.10;1.00;;;;;;;9.65;57.01;97515.47;4940184;28;20031;-79
2024/02/14 00:17:05;;;;;;;1.15;0.93;;;;;;;9.83;56.66;97521.53;4937820;28;20489;-80
2024/02/14 00:19:30;;;;;;;2.78;1.10;;;;;;;9.77;57.38;97518.03;4939441;28;20263;-79
2024/02/14 00:21:56;;;;;;;2.35;0.90;;;;;;;9.77;57.73;97509.44;5026677;28;20479;-80
2024/02/14 00:24:22;;;;;;;2.42;1.10;;;;;;;9.71;57.18;97513.75;4961519;28;20038;-79
2024/02/14 00:29:43;;;;;;;2.90;0.80;;;;;;;9.82;57.20;97512.13;4960626;28;20125;-79
2024/02/14 00:32:09;;;;;;;3.97;1.35;;;;;;;9.82;57.17;97501.72;4992251;28;20039;-79
2024/02/14 00:34:34;;;;;;;1.77;1.27;;;;;;;9.74;57.82;97498.47;4945010;28;20037;-79
2024/02/14 00:36:59;;;;;;;7.30;1.17;;;;;;;9.80;57.79;97506.38;4943850;28;20034;-79
2024/02/14 00:39:25;;;;;;;2.50;1.15;;;;;;;9.75;57.29;97499.28;4963890;28;20030;-79
2024/02/14 00:41:52;;;;;;;3.22;1.20;;;;;;;9.76;57.25;97506.06;4947523;28;20038;-80
2024/02/14 00:44:18;;;;;;;2.40;1.20;;;;;;;9.75;57.03;97501.88;4953403;28;20350;-79
2024/02/14 00:46:44;;;;;;;2.63;1.17;;;;;;;9.68;57.25;97501.22;4976096;28;20035;-79
2024/02/14 00:49:10;;;;;;;2.90;1.20;;;;;;;9.64;57.45;97493.09;4940854;28;20099;-80
2024/02/14 00:51:37;;;;;;;4.43;1.50;;;;;;;9.69;57.37;97498.38;4925013;28;20100;-79
2024/02/14 00:54:02;;;;;;;3.28;1.17;;;;;;;9.54;57.50;97483.28;5029094;28;20038;-79
2024/02/14 00:56:28;;;;;;;2.35;1.23;;;;;;;9.56;57.60;97488.22;4925834;29;20403;-80
2024/02/14 00:58:53;;;;;;;2.10;1.02;;;;;;;9.48;57.76;97475.63;4994695;28;20506;-79
2024/02/14 01:01:19;;;;;;;2.45;1.00;;;;;;;9.43;58.31;97480.72;4944451;28;20019;-79
2024/02/14 01:03:44;;;;;;;2.88;1.48;;;;;;;9.40;58.32;97475.97;4962805;28;20535;-79
2024/02/14 01:06:09;;;;;;;3.03;1.23;;;;;;;9.46;57.60;97469.84;4951924;28;20034;-79
2024/02/14 01:08:36;;;;;;;2.05;1.10;;;;;;;9.48;57.90;97481.59;4939618;28;20130;-79
2024/02/14 01:11:01;;;;;;;2.10;1.20;;;;;;;9.47;57.76;97482.59;4958735;28;20050;-79
2024/02/14 01:13:27;;;;;;;3.10;1.13;;;;;;;9.47;57.97;97482.59;4944103;28;20430;-79
2024/02/14 01:15:52;;;;;;;2.85;1.10;;;;;;;9.44;57.80;97482.28;4939604;28;20491;-78
2024/02/14 01:18:18;;;;;;;3.72;2.15;;;;;;;9.58;58.20;97488.81;5027781;28;20039;-79
2024/02/14 01:20:43;;;;;;;2.67;1.13;;;;;;;9.49;58.53;97474.59;4956053;28;20631;-79
2024/02/14 01:23:09;;;;;;;2.58;1.10;;;;;;;9.55;58.22;97484.84;4947881;28;20043;-79
2024/02/14 01:25:34;;;;;;;3.25;1.30;;;;;;;9.54;58.19;97467.69;4960064;28;20038;-79
2024/02/14 01:28:00;;;;;;;1.83;1.60;;;;;;;9.72;57.91;97478.94;5018491;28;20047;-79
2024/02/14 01:30:26;;;;;;;2.55;1.42;;;;;;;9.66;58.28;97475.44;5045499;28;20547;-79
2024/02/14 01:32:52;;;;;;;2.17;1.10;;;;;;;9.70;57.82;97481.78;4979137;28;20407;-84
2024/02/14 01:35:18;;;;;;;3.70;1.33;;;;;;;9.64;57.91;97487.88;4945559;28;20057;-86
2024/02/14 01:37:45;;;;;;;2.13;1.33;;;;;;;9.58;58.04;97486.22;4934358;28;20121;-85
2024/02/14 01:40:11;;;;;;;2.75;1.27;;;;;;;9.69;58.07;97489.81;4964154;28;20046;-84
2024/02/14 01:42:36;;;;;;;2.50;1.08;;;;;;;9.75;58.17;97486.28;5029737;28;20494;-85
2024/02/14 01:45:03;;;;;;;2.95;1.30;;;;;;;9.62;58.77;97476.94;4946937;28;20035;-83
2024/02/14 01:47:28;;;;;;;3.03;1.65;;;;;;;9.74;58.46;97471.69;4950425;28;20039;-85
2024/02/14 01:49:54;;;;;;;1.90;1.40;;;;;;;9.78;58.35;97482.41;4963217;28;20475;-82
2024/02/14 01:52:21;;;;;;;2.15;1.23;;;;;;;9.76;58.12;97474.84;4948622;28;20042;-85
2024/02/14 01:54:47;;;;;;;2.88;1.33;;;;;;;9.85;57.99;97465.69;4981422;28;20394;-84
2024/02/14 01:57:12;;;;;;;3.00;1.48;;;;;;;9.81;58.06;97454.16;4961408;28;20096;-85
2024/02/14 01:59:38;;;;;;;3.40;1.50;;;;;;;9.88;57.60;97457.38;4942061;28;20031;-82
2024/02/14 02:02:07;;;;;;;3.25;1.20;;;;;;;9.70;57.85;97453.16;4961624;28;20028;-84
2024/02/14 02:04:32;;;;;;;2.15;1.40;;;;;;;9.83;57.51;97456.50;4934624;28;20035;-85
2024/02/14 02:06:58;;;;;;;3.58;1.33;;;;;;;9.90;57.40;97460.56;4923156;28;20085;-85
2024/02/14 02:09:23;;;;;;;3.40;1.38;;;;;;;9.85;57.52;97442.28;4950081;28;20038;-85
2024/02/14 02:11:50;;;;;;;2.55;1.30;;;;;;;9.89;57.69;97447.78;4948336;28;20420;-84
2024/02/14 02:14:16;;;;;;;2.17;1.17;;;;;;;9.84;57.52;97445.09;4934308;28;20030;-82
2024/02/14 02:16:42;;;;;;;2.95;1.42;;;;;;;9.85;58.07;97451.88;4928714;28;20044;-85
2024/02/14 02:19:09;;;;;;;2.58;1.10;;;;;;;9.92;57.85;97436.91;4960299;28;20086;-83
2024/02/14 02:21:38;;;;;;;2.83;1.20;;;;;;;10.06;57.64;97455.63;4947708;28;20453;-82
2024/02/14 02:24:03;;;;;;;5.10;1.55;;;;;;;9.97;57.99;97455.19;4934379;28;20035;-84
2024/02/14 02:26:29;;;;;;;4.43;1.67;;;;;;;9.92;57.26;97448.13;4956447;28;20039;-84
2024/02/14 02:28:54;;;;;;;2.63;1.40;;;;;;;10.08;57.33;97449.16;4960466;28;20084;-85
2024/02/14 02:31:20;;;;;;;2.92;1.20;;;;;;;10.08;57.39;97446.56;4948315;28;20035;-84
2024/02/14 02:33:45;;;;;;;1.92;1.17;;;;;;;10.13;57.15;97448.47;4953691;28;20106;-83
2024/02/14 02:36:11;;;;;;;3.55;1.67;;;;;;;10.04;57.42;97444.66;5008788;28;20482;-85
2024/02/14 02:38:37;;;;;;;1.88;1.23;;;;;;;10.11;57.32;97447.94;4947194;28;20035;-82
2024/02/14 02:41:06;;;;;;;2.53;1.88;;;;;;;10.09;57.01;97447.34;4945021;28;20023;-85
2024/02/14 02:43:32;;;;;;;3.40;1.90;;;;;;;10.09;57.16;97442.16;5012982;28;20152;-84
2024/02/14 02:45:57;;;;;;;4.28;1.83;;;;;;;10.08;57.37;97456.19;4950770;28;20035;-84
2024/02/14 02:48:23;;;;;;;2.63;1.05;;;;;;;9.94;57.94;97442.69;4947917;28;20038;-85
2024/02/14 02:50:49;;;;;;;3.45;1.20;;;;;;;10.06;57.64;97447.84;4950069;28;20035;-83
2024/02/14 02:53:15;;;;;;;2.70;1.05;;;;;;;10.17;57.29;97440.97;4947232;28;20039;-86
2024/02/14 02:55:43;;;;;;;3.50;1.13;;;;;;;10.22;57.45;97451.47;4957434;28;20092;-84
2024/02/14 02:58:09;;;;;;;2.80;1.45;;;;;;;10.12;57.43;97447.66;4962134;28;20540;-84
2024/02/14 03:00:35;;;;;;;3.80;1.10;;;;;;;10.21;57.28;97445.50;4935912;28;20503;-84
2024/02/14 03:03:02;;;;;;;3.10;1.65;;;;;;;10.32;56.96;97461.31;5009659;28;20230;-86
2024/02/14 03:05:28;;;;;;;3.17;1.20;;;;;;;10.32;57.36;97454.28;4950056;28;20109;-83
2024/02/14 03:07:57;;;;;;;2.50;0.82;;;;;;;10.32;56.95;97454.28;5019611;28;20030;-84
2024/02/14 03:10:22;;;;;;;2.30;1.27;;;;;;;10.19;57.38;97447.50;4946596;28;20038;-86
2024/02/14 03:12:48;;;;;;;3.25;1.83;;;;;;;10.00;58.12;97449.53;5003100;28;20035;-85
2024/02/14 03:15:14;;;;;;;2.15;1.33;;;;;;;10.16;58.45;97442.81;4959494;28;20536;-85
2024/02/14 03:17:40;;;;;;;1.88;1.00;;;;;;;10.26;58.00;97440.38;4945924;28;20479;-84
2024/02/14 03:20:15;;;;;;;3.78;1.15;;;;;;;10.43;57.91;97447.41;4948349;28;20037;-83
2024/02/14 03:22:47;;;;;;;3.83;1.30;;;;;;;10.39;58.25;97439.28;4951842;28;20419;-83
2024/02/14 03:25:19;;;;;;;2.63;1.00;;;;;;;10.40;58.02;97434.88;4963293;28;20565;-84
2024/02/14 03:27:51;;;;;;;3.17;1.65;;;;;;;10.42;57.75;97443.25;5006980;28;20031;-85
2024/02/14 03:30:16;;;;;;;3.42;1.17;;;;;;;10.49;57.47;97441.28;4944809;28;20482;-84
2024/02/14 03:32:43;;;;;;;2.38;1.20;;;;;;;10.49;57.25;97444.66;5004388;28;20039;-85
2024/02/14 03:35:10;;;;;;;2.80;1.20;;;;;;;10.54;57.36;97451.78;4926581;28;20038;-84
2024/02/14 03:37:39;;;;;;;4.93;1.50;;;;;;;10.52;57.31;97443.41;5035658;28;20439;-83
2024/02/14 03:40:05;;;;;;;2.92;1.10;;;;;;;10.55;58.00;97452.56;4930092;28;20066;-81
2024/02/14 03:42:30;;;;;;;2.00;1.00;;;;;;;10.48;58.29;97461.28;4963236;28;20459;-84
2024/02/14 03:45:02;;;;;;;4.00;1.42;;;;;;;10.53;57.74;97458.00;4941871;28;20120;-84
2024/02/14 03:47:29;;;;;;;2.25;1.40;;;;;;;10.44;58.23;97462.81;4945654;28;20043;-84
2024/02/14 03:49:54;;;;;;;4.28;1.63;;;;;;;10.43;58.83;97465.63;5027908;28;20042;-84
2024/02/14 03:52:22;;;;;;;2.33;1.40;;;;;;;10.43;58.71;97471.63;4932230;28;20046;-77
2024/02/14 03:54:47;;;;;;;2.47;1.38;;;;;;;10.46;58.57;97481.56;4931146;28;20035;-79
2024/02/14 03:57:13;;;;;;;3.05;1.30;;;;;;;10.45;59.29;97468.78;4947287;28;20027;-79
2024/02/14 03:59:39;;;;;;;3.85;1.55;;;;;;;10.43;59.22;97478.66;4932785;28;20038;-78
2024/02/14 04:02:06;;;;;;;3.50;1.27;;;;;;;10.41;59.64;97470.28;4938328;28;20034;-79
2024/02/14 04:04:33;;;;;;;6.05;1.60;;;;;;;10.41;59.17;97475.50;4942594;28;20031;-78
2024/02/14 04:07:00;;;;;;;3.63;1.20;;;;;;;10.45;59.20;97468.78;4964537;28;20533;-78
2024/02/14 04:09:26;;;;;;;3.90;1.70;;;;;;;10.39;59.91;97482.75;4948370;28;20050;-79
2024/02/14 04:11:51;;;;;;;2.67;1.02;;;;;;;10.55;59.29;97483.78;5009591;28;20026;-79
2024/02/14 04:14:17;;;;;;;2.78;1.40;;;;;;;10.53;58.95;97486.63;4968476;28;20043;-79
2024/02/14 04:16:46;;;;;;;1.88;1.10;;;;;;;10.35;60.04;97486.84;4946310;28;20047;-78
2024/02/14 04:19:12;;;;;;;4.43;1.30;;;;;;;10.37;59.34;97487.41;4939871;28;20052;-79
2024/02/14 04:21:38;;;;;;;3.80;1.33;;;;;;;10.44;59.96;97493.25;4960793;28;20501;-79
2024/02/14 04:24:03;;;;;;;2.30;1.15;;;;;;;10.33;60.21;97491.50;4956915;28;20035;-77
2024/02/14 04:26:29;;;;;;;4.72;1.50;;;;;;;10.47;60.61;97490.97;4947396;28;20070;-79
2024/02/14 04:28:54;;;;;;;2.58;1.70;;;;;;;10.46;60.27;97493.81;5016665;28;20579;-79
2024/02/14 04:31:20;;;;;;;2.55;1.25;;;;;;;10.47;61.39;97492.78;4950270;28;20043;-79
2024/02/14 04:33:51;;;;;;;2.38;1.52;;;;;;;10.48;61.27;97504.78;4950946;28;20531;-79
2024/02/14 04:36:20;;;;;;;4.65;1.55;;;;;;;10.48;61.41;97496.97;4950716;28;20122;-79
2024/02/14 04:38:46;;;;;;;2.17;1.10;;;;;;;10.46;62.08;97509.44;4955465;28;20031;-79
2024/02/14 04:41:12;;;;;;;5.63;1.73;;;;;;;10.42;61.94;97501.31;4948458;28;20027;-79
2024/02/14 04:43:37;;;;;;;2.78;1.40;;;;;;;10.48;61.31;97502.16;4929795;29;20388;-79
2024/02/14 04:46:06;;;;;;;3.33;1.30;;;;;;;10.43;61.59;97502.09;4957871;28;20041;-79
2024/02/14 04:48:32;;;;;;;2.58;1.20;;;;;;;10.40;61.69;97500.75;4947593;28;20050;-79
2024/02/14 04:50:57;;;;;;;2.08;1.30;;;;;;;10.34;62.49;97487.88;4966983;28;20042;-78
2024/02/14 04:53:23;;;;;;;2.65;1.30;;;;;;;10.38;62.49;97491.59;4944323;28;20035;-79
2024/02/14 04:55:48;;;;;;;3.55;1.60;;;;;;;10.41;62.06;97485.91;4930117;28;20034;-79
2024/02/14 04:58:14;;;;;;;3.90;1.15;;;;;;;10.42;61.95;97484.91;4955489;28;20121;-79
2024/02/14 05:00:39;;;;;;;2.17;1.15;;;;;;;10.33;62.56;97488.91;5011348;28;20035;-79
2024/02/14 05:03:05;;;;;;;2.63;1.10;;;;;;;10.33;62.53;97487.06;4960209;28;20060;-78
2024/02/14 05:05:30;;;;;;;2.83;1.63;;;;;;;10.44;62.01;97485.44;4955783;28;20106;-79
2024/02/14 05:07:56;;;;;;;1.98;1.48;;;;;;;10.33;62.53;97489.69;4958549;28;20029;-79
2024/02/14 05:10:21;;;;;;;4.22;2.05;;;;;;;10.36;62.43;97493.63;4953031;28;20494;-77
2024/02/14 05:12:47;;;;;;;2.53;1.23;;;;;;;10.38;62.11;97494.97;4967073;28;20483;-79
2024/02/14 05:15:12;;;;;;;6.22;2.20;;;;;;;10.49;61.82;97491.53;4947446;28;20043;-79
2024/02/14 05:17:38;;;;;;;2.10;1.17;;;;;;;10.51;61.59;97503.53;4949686;28;20355;-79
2024/02/14 05:20:08;;;;;;;2.83;1.20;;;;;;;10.41;61.32;97501.53;4980982;28;20036;-79
2024/02/14 05:22:36;;;;;;;1.75;1.10;;;;;;;10.54;61.88;97500.44;4957602;28;20035;-79
2024/02/14 05:25:02;;;;;;;3.90;1.30;;;;;;;10.24;62.79;97493.66;4946396;28;20086;-79
2024/02/14 05:27:27;;;;;;;2.33;1.20;;;;;;;10.46;62.19;97507.59;4965978;28;20066;-78
2024/02/14 05:29:53;;;;;;;7.38;2.05;;;;;;;10.37;62.49;97498.63;4955753;28;20049;-79
2024/02/14 05:32:18;;;;;;;3.55;1.52;;;;;;;10.42;62.88;97516.91;4962916;28;20494;-79
2024/02/14 05:34:43;;;;;;;3.47;1.52;;;;;;;10.40;62.99;97515.56;4932888;28;20441;-79
2024/02/14 05:37:09;;;;;;;5.70;2.00;;;;;;;10.31;64.16;97520.31;4949534;28;20475;-79
2024/02/14 05:39:34;;;;;;;2.58;1.42;;;;;;;10.44;63.69;97507.06;4945464;28;20039;-79
2024/02/14 05:41:59;;;;;;;2.83;1.40;;;;;;;10.49;63.29;97509.75;4947061;28;20119;-79
2024/02/14 05:44:27;;;;;;;3.70;1.50;;;;;;;10.43;63.91;97507.28;4970092;28;20035;-79
2024/02/14 05:46:52;;;;;;;5.03;1.52;;;;;;;10.43;63.75;97509.91;4960740;28;20382;-78
2024/02/14 05:49:18;;;;;;;3.63;1.38;;;;;;;10.36;64.86;97515.25;4942505;28;20035;-79
2024/02/14 05:51:43;;;;;;;4.75;2.45;;;;;;;10.33;65.09;97507.91;4949631;28;20031;-79
2024/02/14 05:54:09;;;;;;;2.67;1.48;;;;;;;10.40;64.92;97511.16;4947810;28;20039;-79
2024/02/14 05:56:34;;;;;;;4.15;1.80;;;;;;;10.21;65.60;97513.16;4965594;28;20391;-79
2024/02/14 05:58:59;;;;;;;2.70;1.80;;;;;;;10.13;66.45;97510.91;5034376;28;20043;-78
2024/02/14 06:01:25;;;;;;;4.22;1.98;;;;;;;10.37;65.41;97514.22;4931759;28;20033;-78
2024/02/14 06:03:53;;;;;;;2.40;1.73;;;;;;;10.26;65.79;97510.63;4949009;28;20038;-79
2024/02/14 06:06:18;;;;;;;3.65;2.10;;;;;;;10.18;66.47;97505.81;4929254;28;20545;-77
2024/02/14 06:08:44;;;;;;;2.67;1.85;;;;;;;10.30;66.37;97509.13;4944963;28;20035;-79
2024/02/14 06:11:09;;;;;;;3.38;2.10;;;;;;;10.08;66.73;97498.59;4963997;28;20438;-78
2024/02/14 06:13:38;;;;;;;2.90;2.00;;;;;;;10.20;66.62;97514.16;4939148;28;20038;-83
2024/02/14 06:16:03;;;;;;;4.55;2.58;;;;;;;10.30;66.11;97508.34;4941016;28;20239;-83
2024/02/14 06:18:29;;;;;;;6.43;2.30;;;;;;;10.31;66.44;97507.31;4942929;28;20034;-82
2024/02/14 06:20:54;;;;;;;2.88;1.90;;;;;;;9.94;66.97;97518.13;4959826;28;20027;-82
2024/02/14 06:23:20;;;;;;;5.13;2.05;;;;;;;10.28;67.05;97519.00;4953966;28;20502;-81
2024/02/14 06:25:45;;;;;;;3.80;2.30;;;;;;;10.42;66.58;97524.72;4923030;28;20375;-81
2024/02/14 06:28:11;;;;;;;3.92;2.22;;;;;;;10.43;66.14;97528.13;4927598;28;20047;-82
2024/02/14 06:30:36;;;;;;;3.33;2.28;;;;;;;10.28;66.62;97529.41;4932237;29;20065;-83
2024/02/14 06:33:02;;;;;;;3.90;2.42;;;;;;;10.41;65.81;97523.13;4947498;28;20065;-81
2024/02/14 06:35:28;;;;;;;4.15;2.17;;;;;;;10.35;66.58;97528.50;4949991;28;20042;-83
2024/02/14 06:37:54;;;;;;;3.47;1.98;;;;;;;10.47;66.38;97531.84;4950155;28;20075;-82
2024/02/14 06:40:20;;;;;;;4.20;2.40;;;;;;;10.40;66.39;97531.19;4949731;28;20046;-82
2024/02/14 06:42:45;;;;;;;4.60;2.90;;;;;;;10.49;66.28;97524.59;4941212;28;20036;-83
2024/02/14 06:45:11;;;;;;;3.72;2.40;;;;;;;10.37;66.49;97521.25;5001133;28;20089;-83
2024/02/14 06:47:36;;;;;;;4.47;2.78;;;;;;;10.53;65.73;97532.72;4945701;28;20394;-82
2024/02/14 06:50:01;;;;;;;4.28;2.13;;;;;;;10.57;66.06;97541.63;4940135;28;20038;-82
2024/02/14 06:52:27;;;;;;;5.32;3.50;;;;;;;10.50;66.09;97541.78;4964883;28;20069;-84
2024/02/14 06:54:52;;;;;;;4.03;3.15;;;;;;;10.41;65.63;97536.16;4949923;28;20391;-79
2024/02/14 06:57:17;;;;;;;5.10;2.50;;;;;;;10.58;65.83;97556.22;4949759;28;20039;-79
2024/02/14 06:59:43;;;;;;;4.22;2.60;;;;;;;10.46;66.74;97548.47;4948939;28;20031;-79
2024/02/14 07:02:08;;;;;;;5.90;3.05;;;;;;;10.52;65.94;97544.94;4965239;28;20483;-78
2024/02/14 07:04:34;;;;;;;4.63;3.22;;;;;;;10.54;66.00;97537.69;4966730;28;20066;-79
2024/02/14 07:07:00;;;;;;;9.10;3.90;;;;;;;10.62;65.49;97550.31;4959606;28;20042;-79
2024/02/14 07:09:25;;;;;;;4.40;3.10;;;;;;;10.46;66.44;97553.69;4924534;28;20027;-78
2024/02/14 07:11:53;;;;;;;5.50;3.10;;;;;;;10.53;66.41;97550.94;4964043;28;20038;-79
2024/02/14 07:14:19;;;;;;;4.18;3.05;;;;;;;10.51;66.55;97547.78;4945425;28;20482;-79
2024/02/14 07:16:45;;;;;;;3.67;2.97;;;;;;;10.60;65.81;97557.56;4948765;28;20049;-79
2024/02/14 07:19:10;;;;;;;5.40;2.88;;;;;;;10.53;66.34;97569.16;4964527;28;20047;-78
2024/02/14 07:21:37;;;;;;;6.50;2.72;;;;;;;10.53;65.49;97564.75;4948973;28;20035;-79
2024/02/14 07:24:04;;;;;;;6.60;3.08;;;;;;;10.48;65.99;97575.06;4965312;28;20046;-84
2024/02/14 07:26:30;;;;;;;4.55;2.70;;;;;;;10.50;66.18;97573.00;4948766;28;20061;-85
2024/02/14 07:28:55;;;;;;;4.20;2.53;;;;;;;10.65;65.84;97577.69;5033395;28;20043;-84
2024/02/14 07:31:20;;;;;;;8.65;3.58;;;;;;;10.49;66.39;97566.25;4957233;28;20041;-83
2024/02/14 07:33:47;;;;;;;5.43;3.08;;;;;;;10.51;66.21;97569.41;4931223;28;20448;-84
2024/02/14 07:36:13;;;;;;;6.03;3.00;;;;;;;10.70;66.35;97579.63;5047556;28;20053;-84
2024/02/14 07:38:38;;;;;;;4.20;3.30;;;;;;;10.43;66.43;97577.56;4920625;28;20035;-82
2024/02/14 07:41:04;;;;;;;5.47;2.83;;;;;;;10.53;66.16;97582.19;5011804;28;20030;-84
2024/02/14 07:43:29;;;;;;;5.82;3.20;;;;;;;10.56;66.12;97587.72;4948511;28;20088;-83
2024/02/14 07:45:54;;;;;;;4.60;3.00;;;;;;;10.53;66.70;97587.38;4949139;28;20117;-83
2024/02/14 07:48:22;;;;;;;4.75;2.55;;;;;;;10.65;65.46;97586.28;4947458;28;20089;-83
2024/02/14 07:50:47;;;;;;;5.60;2.70;;;;;;;10.54;66.83;97592.38;4964913;28;20558;-80
2024/02/14 07:53:13;;;;;;;6.35;3.92;;;;;;;10.57;66.33;97591.88;4949353;28;20127;-82
2024/02/14 07:55:39;;;;;;;5.43;3.22;;;;;;;10.55;66.59;97591.31;4933123;28;20494;-83
2024/02/14 07:58:05;;;;;;;5.05;3.15;;;;;;;10.55;66.96;97601.75;5010318;28;20411;-82
2024/02/14 08:00:30;;;;;;;5.78;3.75;;;;;;;10.72;66.13;97596.56;4949128;28;20031;-84
2024/02/14 08:02:56;;;;;;;5.82;2.90;;;;;;;10.68;66.29;97606.66;4919892;29;20043;-82
2024/02/14 08:05:21;;;;;;;5.32;3.03;;;;;;;10.74;66.29;97607.53;4946924;28;20042;-78
2024/02/14 08:07:46;;;;;;;3.35;2.75;;;;;;;10.82;66.38;97606.38;4949680;28;20046;-79
2024/02/14 08:10:12;;;;;;;5.97;3.08;;;;;;;10.77;66.88;97606.28;4955398;28;20046;-79
2024/02/14 08:12:37;;;;;;;6.55;3.13;;;;;;;10.70;66.78;97603.06;5026030;28;20035;-79
2024/02/14 08:15:05;;;;;;;4.75;3.00;;;;;;;10.80;66.29;97603.22;4941372;28;20035;-78
2024/02/14 08:17:31;;;;;;;6.03;3.38;;;;;;;10.72;66.86;97596.56;4961534;28;20097;-78
2024/02/14 08:19:56;;;;;;;5.00;2.83;;;;;;;10.77;66.82;97598.47;4936017;29;20031;-79
2024/02/14 08:22:22;;;;;;;5.07;3.58;;;;;;;10.94;66.79;97608.91;5029119;28;20726;-79
2024/02/14 08:24:47;;;;;;;8.50;3.65;;;;;;;10.84;66.20;97599.91;4941854;28;20034;-77
2024/02/14 08:27:13;;;;;;;5.72;3.40;;;;;;;10.89;66.83;97611.44;4946243;28;20415;-78
2024/02/14 08:29:38;;;;;;;5.43;2.90;;;;;;;10.91;66.36;97609.38;4939508;28;20062;-78
2024/02/14 08:32:04;;;;;;;4.25;3.10;;;;;;;10.86;66.62;97607.47;5020918;28;20420;-79
2024/02/14 08:34:30;;;;;;;3.88;2.72;;;;;;;10.99;66.38;97609.78;5017411;28;20046;-79
2024/02/14 08:36:56;;;;;;;8.18;3.53;;;;;;;11.04;66.76;97612.47;5030307;28;20043;-79
2024/02/14 08:39:21;;;;;;;3.78;2.78;;;;;;;11.03;66.64;97605.66;4932424;28;20122;-79
2024/02/14 08:41:46;;;;;;;4.72;3.65;;;;;;;10.87;67.17;97602.03;4926319;28;20069;-79
2024/02/14 08:44:13;;;;;;;4.78;3.00;;;;;;;10.97;67.07;97609.25;4960153;28;20039;-77
2024/02/14 08:46:39;;;;;;;6.88;2.90;;;;;;;10.97;66.18;97598.03;4957927;28;20066;-79
2024/02/14 08:49:08;;;;;;;5.95;3.13;;;;;;;10.97;66.10;97592.81;4947080;28;20035;-78
2024/02/14 08:51:37;;;;;;;4.25;3.15;;;;;;;10.99;66.46;97601.97;4947079;28;20399;-78
2024/02/14 08:54:06;;;;;;;5.13;2.95;;;;;;;10.96;67.19;97607.66;4962640;28;20049;-78
2024/02/14 08:56:34;;;;;;;5.28;3.63;;;;;;;11.11;66.96;97609.72;4943392;28;20041;-79
2024/02/14 08:59:04;;;;;;;4.88;2.95;;;;;;;11.04;67.34;97604.66;4932121;28;20121;-78
2024/02/14 09:01:30;;;;;;;6.32;3.40;;;;;;;11.03;66.86;97597.06;5018215;28;20046;-79
2024/02/14 09:03:56;;;;;;;6.32;3.97;;;;;;;11.06;67.28;97604.44;4959188;28;20031;-78
2024/02/14 09:06:21;;;;;;;7.05;3.40;;;;;;;11.06;67.45;97607.03;5002401;28;20521;-79
2024/02/14 09:08:47;;;;;;;5.65;3.75;;;;;;;11.20;66.27;97604.91;4988830;28;20483;-80
2024/02/14 09:11:13;;;;;;;6.30;3.65;;;;;;;11.18;66.46;97601.75;4942854;28;20053;-79
2024/02/14 09:13:40;;;;;;;5.72;3.28;;;;;;;11.10;66.88;97586.50;4944794;28;20066;-79
2024/02/14 09:16:07;;;;;;;5.22;3.53;;;;;;;11.26;65.97;97601.34;4968398;28;20441;-85
2024/02/14 09:18:32;;;;;;;5.00;4.28;;;;;;;11.23;66.74;97596.59;4927077;28;20034;-83
2024/02/14 09:20:58;;;;;;;6.57;3.97;;;;;;;11.27;66.68;97602.13;4927357;29;20033;-83
2024/02/14 09:23:23;;;;;;;8.40;3.75;;;;;;;11.24;67.35;97588.56;4966262;28;20038;-84
2024/02/14 09:25:49;;;;;;;6.45;4.18;;;;;;;11.35;66.44;97604.34;4950422;28;20027;-83
2024/02/14 09:28:18;;;;;;;4.60;3.25;;;;;;;11.39;67.21;97595.78;4935155;28;20620;-83
2024/02/14 09:30:44;;;;;;;6.30;3.33;;;;;;;11.35;67.39;97601.75;4948547;28;20133;-84
2024/02/14 09:33:09;;;;;;;5.20;3.85;;;;;;;11.50;67.15;97596.75;4948631;28;20125;-83
2024/02/14 09:35:38;;;;;;;6.45;3.80;;;;;;;11.48;66.80;97603.22;4950957;28;20046;-84
2024/02/14 09:38:04;;;;;;;4.10;3.28;;;;;;;11.37;67.49;97613.50;4961704;28;20042;-82
2024/02/14 09:40:29;;;;;;;4.63;3.53;;;;;;;11.49;67.26;97610.03;4953028;28;20031;-85
2024/02/14 09:42:57;;;;;;;5.97;3.78;;;;;;;11.50;67.17;97617.59;5035567;28;20043;-82
2024/02/14 09:45:25;;;;;;;7.03;3.30;;;;;;;11.59;67.04;97610.94;4918236;28;20042;-78
2024/02/14 09:47:51;;;;;;;4.75;3.25;;;;;;;11.53;66.61;97611.91;4946320;28;20038;-79
2024/02/14 09:50:17;;;;;;;4.15;3.28;;;;;;;11.55;67.39;97616.88;4949375;28;20546;-79
2024/02/14 09:52:43;;;;;;;5.15;3.50;;;;;;;11.54;67.18;97615.31;4959901;28;20043;-79
2024/02/14 09:55:09;;;;;;;6.18;3.85;;;;;;;11.55;66.31;97617.69;4953780;28;20724;-79
2024/02/14 09:57:34;;;;;;;6.38;3.88;;;;;;;11.61;67.10;97615.94;4948511;28;20096;-79
2024/02/14 10:00:02;;;;;;;4.88;3.70;;;;;;;11.67;66.70;97625.41;4946534;28;20065;-80
2024/02/14 10:02:28;;;;;;;9.00;4.00;;;;;;;11.67;66.79;97622.81;4923091;28;20035;-79
2024/02/14 10:04:53;;;;;;;7.63;3.70;;;;;;;11.69;67.26;97633.78;4949261;28;20045;-79
2024/02/14 10:07:19;;;;;;;5.38;3.65;;;;;;;11.67;67.43;97622.00;4943204;28;20042;-85
2024/02/14 10:09:44;;;;;;;5.25;3.65;;;;;;;11.70;66.77;97621.53;4963025;28;20418;-84
2024/02/14 10:12:10;;;;;;;4.40;3.67;;;;;;;11.76;67.02;97623.97;4947630;28;20035;-84
2024/02/14 10:14:40;;;;;;;4.20;3.22;;;;;;;11.80;66.94;97629.47;4955729;28;20430;-82
2024/02/14 10:17:06;;;;;;;5.32;3.90;;;;;;;11.74;67.43;97643.50;4949124;28;20038;-84
2024/02/14 10:19:31;;;;;;;5.05;3.70;;;;;;;11.82;67.27;97645.69;4947435;28;20278;-84
2024/02/14 10:22:02;;;;;;;5.38;3.67;;;;;;;11.94;66.54;97653.44;5036379;28;20031;-79
2024/02/14 10:24:30;;;;;;;5.47;3.92;;;;;;;11.85;67.51;97647.03;4947383;28;20055;-79
2024/02/14 10:26:57;;;;;;;5.05;3.67;;;;;;;11.68;67.35;97666.09;4956988;28;20114;-79
2024/02/14 10:29:23;;;;;;;4.05;3.50;;;;;;;11.90;66.62;97670.59;4958958;28;20031;-79
2024/02/14 10:31:49;;;;;;;5.25;3.90;;;;;;;11.85;67.24;97652.25;4963670;28;20510;-79
2024/02/14 10:34:14;;;;;;;6.15;4.10;;;;;;;11.91;67.18;97659.94;4929027;28;20092;-79
2024/02/14 10:36:41;;;;;;;6.32;3.60;;;;;;;11.87;67.74;97663.22;4948347;28;20138;-79
2024/02/14 10:39:07;;;;;;;6.65;3.78;;;;;;;11.95;67.14;97665.47;4931510;28;20490;-78
2024/02/14 10:41:35;;;;;;;4.90;3.75;;;;;;;12.04;67.27;97664.00;4961826;28;20281;-79
2024/02/14 10:44:05;;;;;;;5.93;4.15;;;;;;;12.01;67.17;97659.28;4926848;28;20035;-79
2024/02/14 10:46:36;;;;;;;9.50;4.03;;;;;;;11.97;67.31;97655.56;5008476;28;20039;-79
2024/02/14 10:49:05;;;;;;;5.43;4.15;;;;;;;12.07;66.94;97660.94;4949400;28;20292;-78
2024/02/14 10:51:33;;;;;;;4.85;3.78;;;;;;;12.02;67.77;97666.06;4944247;28;20380;-79
2024/02/14 10:54:01;;;;;;;9.77;3.97;;;;;;;12.09;66.33;97663.28;4944989;28;20387;-79
2024/02/14 10:56:29;;;;;;;5.53;3.65;;;;;;;12.17;66.75;97663.66;4962450;28;20039;-84
2024/02/14 10:58:58;;;;;;;5.05;4.43;;;;;;;12.14;66.99;97664.16;4965611;28;20042;-83
2024/02/14 11:01:26;;;;;;;5.68;4.15;;;;;;;12.17;67.12;97653.22;4941945;28;20030;-84
2024/02/14 11:03:51;;;;;;;6.13;3.58;;;;;;;12.30;66.84;97662.53;4963678;28;20027;-84
2024/02/14 11:06:19;;;;;;;6.88;3.80;;;;;;;12.22;67.66;97660.34;4925792;28;20050;-84
2024/02/14 11:09:01;;;;;;;4.53;3.83;;;;;;;12.49;66.67;97651.75;4946902;28;20035;-84
2024/02/14 11:11:32;;;;;;;6.47;3.85;;;;;;;12.41;67.32;97654.81;5036117;28;20037;-80
2024/02/14 11:13:58;;;;;;;7.13;3.72;;;;;;;12.23;68.13;97650.69;4950194;28;20120;-85
2024/02/14 11:16:30;;;;;;;5.47;4.10;;;;;;;12.18;67.83;97654.00;4958635;28;20510;-82
2024/02/14 11:19:09;;;;;;;5.07;3.72;;;;;;;12.52;66.44;97665.09;5014168;28;20031;-83
2024/02/14 11:21:48;;;;;;;6.13;3.88;;;;;;;12.42;67.39;97657.16;4958652;28;20121;-83
2024/02/14 11:24:17;;;;;;;5.50;3.45;;;;;;;12.51;66.94;97653.09;5033421;28;20038;-83
2024/02/14 11:26:52;;;;;;;6.25;3.78;;;;;;;12.52;67.14;97656.50;4933448;28;20037;-84
2024/02/14 11:29:21;;;;;;;4.70;3.67;;;;;;;12.65;66.96;97652.72;4949186;28;20031;-84
2024/02/14 11:31:47;;;;;;;4.85;4.38;;;;;;;12.47;67.20;97657.22;4932255;28;20031;-84